createdAt,value
2023-05-23T00:01:17.293Z,21.72
2023-05-23T00:04:20.511Z,21.72
2023-05-23T00:07:22.574Z,21.66
2023-05-23T00:10:24.622Z,21.60
2023-05-23T00:13:27.289Z,21.64
2023-05-23T00:16:29.779Z,21.66
2023-05-23T00:19:31.891Z,21.64
2023-05-23T00:22:34.078Z,21.65
2023-05-23T00:25:37.605Z,21.63
2023-05-23T00:28:40.133Z,21.61
2023-05-23T00:31:46.903Z,21.66
2023-05-23T00:34:49.626Z,21.63
2023-05-23T00:37:52.249Z,21.63
2023-05-23T00:40:54.460Z,21.64
2023-05-23T00:43:59.978Z,21.65
2023-05-23T00:47:02.759Z,21.66
2023-05-23T00:50:07.335Z,21.66
2023-05-23T00:53:09.819Z,21.62
2023-05-23T00:56:12.627Z,21.62
2023-05-23T00:59:15.889Z,21.62
2023-05-23T01:02:18.368Z,21.64
2023-05-23T01:05:25.224Z,21.61
2023-05-23T01:08:29.802Z,21.56
2023-05-23T01:11:47.448Z,21.56
2023-05-23T01:15:04.658Z,21.52
2023-05-23T01:18:18.368Z,21.52
2023-05-23T01:21:23.159Z,21.52
2023-05-23T01:24:37.163Z,21.50
2023-05-23T01:28:05.652Z,21.47
2023-05-23T01:31:11.258Z,21.40
2023-05-23T01:34:14.799Z,21.40
2023-05-23T01:37:19.833Z,21.47
2023-05-23T01:40:26.172Z,21.50
2023-05-23T01:43:28.757Z,21.50
2023-05-23T01:46:33.920Z,21.49
2023-05-23T01:49:39.090Z,21.47
2023-05-23T01:52:41.465Z,21.43
2023-05-23T01:55:45.136Z,21.39
2023-05-23T01:58:47.631Z,21.40
2023-05-23T02:01:49.965Z,21.41
2023-05-23T02:04:52.123Z,21.45
2023-05-23T02:07:54.262Z,21.43
2023-05-23T02:10:56.394Z,21.41
2023-05-23T02:13:58.856Z,21.42
2023-05-23T02:17:01.273Z,21.42
2023-05-23T02:20:04.158Z,21.42
2023-05-23T02:23:06.813Z,21.41
2023-05-23T02:26:08.996Z,21.42
2023-05-23T02:29:11.742Z,21.40
2023-05-23T02:32:14.108Z,21.43
2023-05-23T02:35:16.786Z,21.38
2023-05-23T02:38:20.871Z,21.33
2023-05-23T02:41:23.224Z,21.33
2023-05-23T02:44:25.660Z,21.36
2023-05-23T02:47:27.863Z,21.35
2023-05-23T02:50:29.944Z,21.35
2023-05-23T02:53:32.092Z,21.34
2023-05-23T02:56:34.502Z,21.33
2023-05-23T02:59:36.604Z,21.34
2023-05-23T03:02:38.786Z,21.35
2023-05-23T03:05:42.182Z,21.36
2023-05-23T03:08:44.471Z,21.37
2023-05-23T03:11:46.775Z,21.36
2023-05-23T03:14:49.627Z,21.41
2023-05-23T03:17:51.764Z,21.36
2023-05-23T03:20:54.123Z,21.24
2023-05-23T03:23:58.785Z,21.21
2023-05-23T03:27:02.173Z,21.19
2023-05-23T03:30:05.446Z,21.25
2023-05-23T03:33:07.841Z,21.23
2023-05-23T03:36:10.105Z,21.31
2023-05-23T03:39:12.467Z,21.40
2023-05-23T03:42:14.688Z,21.21
2023-05-23T03:45:18.416Z,21.17
2023-05-23T03:48:21.048Z,21.28
2023-05-23T03:51:24.472Z,21.37
2023-05-23T03:54:26.692Z,21.37
2023-05-23T03:57:28.780Z,21.38
2023-05-23T04:00:31.715Z,21.38
2023-05-23T04:03:35.520Z,21.23
2023-05-23T04:06:39.643Z,21.24
2023-05-23T04:09:41.923Z,21.28
2023-05-23T04:12:45.931Z,21.32
2023-05-23T04:15:52.404Z,21.44
2023-05-23T04:18:55.505Z,21.47
2023-05-23T04:21:57.684Z,21.45
2023-05-23T04:24:59.930Z,21.45
2023-05-23T04:28:06.649Z,21.53
2023-05-23T04:31:08.874Z,21.51
2023-05-23T04:34:12.394Z,21.49
2023-05-23T04:37:15.307Z,21.42
2023-05-23T04:40:17.705Z,21.37
2023-05-23T04:43:43.835Z,21.38
2023-05-23T04:46:53.655Z,21.45
2023-05-23T04:50:00.644Z,21.40
2023-05-23T04:53:02.800Z,21.38
2023-05-23T04:56:05.388Z,21.33
2023-05-23T04:59:11.657Z,21.23
2023-05-23T05:02:14.054Z,21.26
2023-05-23T05:05:16.337Z,21.44
2023-05-23T05:08:20.066Z,21.57
2023-05-23T05:11:22.365Z,21.65
2023-05-23T05:14:26.767Z,21.68
2023-05-23T05:17:30.238Z,21.69
2023-05-23T05:20:44.412Z,21.62
2023-05-23T05:23:46.816Z,21.63
2023-05-23T05:26:51.301Z,21.50
2023-05-23T05:29:53.920Z,21.40
2023-05-23T05:32:58.341Z,21.49
2023-05-23T05:36:00.708Z,21.43
2023-05-23T05:39:02.889Z,21.55
2023-05-23T05:42:05.633Z,21.64
2023-05-23T05:45:08.137Z,21.71
2023-05-23T05:48:12.199Z,21.71
2023-05-23T05:51:14.449Z,21.62
2023-05-23T05:54:19.381Z,21.59
2023-05-23T05:57:21.623Z,21.59
2023-05-23T06:00:24.171Z,21.74
2023-05-23T06:03:28.813Z,21.82
2023-05-23T06:06:32.420Z,21.89
2023-05-23T06:09:34.474Z,21.83
2023-05-23T06:12:36.901Z,21.86
2023-05-23T06:15:39.125Z,21.89
2023-05-23T06:18:41.598Z,21.91
2023-05-23T06:21:44.433Z,21.95
2023-05-23T06:24:47.274Z,21.92
2023-05-23T06:27:50.198Z,21.93
2023-05-23T06:30:52.359Z,22.01
2023-05-23T06:33:54.674Z,22.09
2023-05-23T06:36:56.728Z,21.97
2023-05-23T06:39:58.985Z,21.99
2023-05-23T06:43:01.267Z,21.90
2023-05-23T06:46:46.804Z,22.00
2023-05-23T06:49:48.813Z,22.01
2023-05-23T06:52:50.958Z,22.09
2023-05-23T06:55:53.132Z,22.19
2023-05-23T06:58:56.991Z,22.23
2023-05-23T07:01:59.179Z,22.25
2023-05-23T07:05:02.241Z,22.05
2023-05-23T07:08:22.040Z,22.11
2023-05-23T07:15:03.389Z,22.43
2023-05-23T07:18:07.140Z,22.43
2023-05-23T07:21:10.088Z,22.38
2023-05-23T07:24:13.792Z,22.47
2023-05-23T07:27:16.088Z,22.49
2023-05-23T07:30:20.464Z,22.63
2023-05-23T07:33:23.061Z,22.62
2023-05-23T07:36:45.881Z,22.65
2023-05-23T07:39:48.873Z,22.69
2023-05-23T07:42:51.158Z,22.72
2023-05-23T07:45:53.950Z,22.79
2023-05-23T07:48:56.989Z,22.80
2023-05-23T07:51:59.213Z,22.74
2023-05-23T07:55:02.030Z,22.75
2023-05-23T07:58:04.352Z,22.80
2023-05-23T08:01:08.198Z,22.83
2023-05-23T08:04:30.196Z,22.86
2023-05-23T08:07:32.388Z,22.86
2023-05-23T08:10:40.404Z,22.88
2023-05-23T08:13:47.758Z,22.91
2023-05-23T08:17:22.534Z,22.90
2023-05-23T08:20:31.261Z,22.95
2023-05-23T08:23:34.410Z,23.00
2023-05-23T08:26:38.016Z,22.99
2023-05-23T08:29:43.009Z,23.07
2023-05-23T08:32:56.227Z,23.08
2023-05-23T08:35:59.590Z,23.08
2023-05-23T08:39:03.570Z,23.23
2023-05-23T08:42:10.538Z,23.16
2023-05-23T08:45:12.998Z,23.18
2023-05-23T08:48:21.856Z,23.22
2023-05-23T08:51:28.006Z,23.26
2023-05-23T08:54:34.329Z,23.27
2023-05-23T08:57:37.078Z,23.30
2023-05-23T09:00:56.860Z,23.32
2023-05-23T09:04:05.078Z,23.34
2023-05-23T09:07:26.156Z,23.33
2023-05-23T09:10:30.064Z,23.30
2023-05-23T09:13:34.416Z,23.25
2023-05-23T09:16:41.861Z,23.19
2023-05-23T09:19:48.605Z,23.15
2023-05-23T09:23:08.989Z,23.12
2023-05-23T09:26:16.272Z,23.10
2023-05-23T09:29:21.801Z,23.10
2023-05-23T09:32:24.046Z,23.05
2023-05-23T09:35:31.350Z,23.07
2023-05-23T09:38:41.873Z,23.05
2023-05-23T09:41:44.763Z,23.07
2023-05-23T09:44:50.627Z,23.07
2023-05-23T09:47:53.934Z,23.07
2023-05-23T09:50:56.135Z,23.05
2023-05-23T09:53:58.486Z,23.03
2023-05-23T09:57:02.853Z,23.06
2023-05-23T10:00:07.689Z,23.05
2023-05-23T10:03:17.571Z,23.04
2023-05-23T10:06:29.871Z,23.06
2023-05-23T10:09:36.658Z,23.05
2023-05-23T10:12:50.232Z,23.05
2023-05-23T10:16:12.899Z,23.06
2023-05-23T10:19:49.679Z,23.11
2023-05-23T10:22:52.650Z,23.10
2023-05-23T10:25:56.598Z,23.11
2023-05-23T10:29:00.881Z,23.17
2023-05-23T10:32:05.831Z,23.22
2023-05-23T10:35:47.008Z,23.24
2023-05-23T10:39:04.587Z,23.24
2023-05-23T10:42:19.719Z,23.27
2023-05-23T10:45:23.206Z,23.32
2023-05-23T10:48:36.457Z,23.38
2023-05-23T10:51:41.434Z,23.48
2023-05-23T10:54:53.080Z,23.51
2023-05-23T10:58:21.834Z,23.54
2023-05-23T11:01:24.573Z,23.58
2023-05-23T11:04:28.397Z,23.68
2023-05-23T11:07:32.540Z,23.74
2023-05-23T11:11:01.947Z,23.83
2023-05-23T11:14:04.401Z,23.96
2023-05-23T11:17:12.401Z,24.04
2023-05-23T11:20:17.185Z,24.03
2023-05-23T11:23:20.453Z,24.14
2023-05-23T11:26:32.769Z,24.28
2023-05-23T11:29:35.000Z,24.41
2023-05-23T11:32:38.281Z,24.46
2023-05-23T11:35:41.918Z,24.51
2023-05-23T11:38:44.298Z,24.58
2023-05-23T11:42:11.033Z,24.67
2023-05-23T11:45:13.080Z,24.71
2023-05-23T11:48:17.084Z,24.70
2023-05-23T11:51:20.565Z,24.92
2023-05-23T11:54:26.876Z,24.93
2023-05-23T11:57:29.391Z,24.97
2023-05-23T12:00:31.941Z,24.92
2023-05-23T12:03:53.125Z,24.74
2023-05-23T12:06:56.741Z,24.77
2023-05-23T12:09:59.241Z,24.68
2023-05-23T12:13:01.787Z,24.65
2023-05-23T12:16:05.163Z,24.58
2023-05-23T12:19:10.028Z,24.56
2023-05-23T12:22:12.154Z,24.67
2023-05-23T12:25:14.269Z,24.67
2023-05-23T12:28:16.420Z,24.81
2023-05-23T12:31:21.805Z,24.95
2023-05-23T12:34:24.108Z,25.03
2023-05-23T12:37:27.393Z,25.08
2023-05-23T12:40:29.437Z,25.14
2023-05-23T12:43:31.463Z,25.12
2023-05-23T12:46:33.457Z,25.16
2023-05-23T12:49:35.715Z,25.15
2023-05-23T12:52:38.100Z,25.14
2023-05-23T12:55:40.749Z,25.11
2023-05-23T12:58:43.746Z,25.07
2023-05-23T13:01:45.904Z,25.01
2023-05-23T13:04:48.103Z,24.99
2023-05-23T13:07:50.806Z,24.93
2023-05-23T13:10:54.313Z,24.84
2023-05-23T13:13:56.434Z,24.77
2023-05-23T13:16:59.008Z,24.69
2023-05-23T13:20:01.688Z,24.66
2023-05-23T13:23:04.256Z,24.64
2023-05-23T13:26:07.830Z,24.59
2023-05-23T13:29:10.027Z,24.53
2023-05-23T13:32:13.224Z,24.50
2023-05-23T13:35:16.143Z,24.46
2023-05-23T13:38:21.370Z,24.52
2023-05-23T13:41:23.544Z,24.54
2023-05-23T13:44:26.217Z,24.61
2023-05-23T13:47:28.319Z,24.66
2023-05-23T13:50:30.614Z,24.65
2023-05-23T13:53:34.181Z,24.63
2023-05-23T13:56:38.554Z,24.61
2023-05-23T13:59:40.700Z,24.56
2023-05-23T14:02:43.307Z,24.54
2023-05-23T14:05:45.756Z,24.51
2023-05-23T14:08:48.017Z,24.55
2023-05-23T14:11:52.340Z,24.58
2023-05-23T14:14:54.578Z,24.68
2023-05-23T14:17:57.274Z,24.77
2023-05-23T14:20:59.516Z,24.80
2023-05-23T14:24:01.621Z,24.90
2023-05-23T14:27:04.326Z,24.95
2023-05-23T14:30:07.813Z,25.02
2023-05-23T14:33:11.219Z,24.98
2023-05-23T14:36:13.552Z,25.03
2023-05-23T14:39:21.091Z,25.10
2023-05-23T14:42:23.193Z,25.13
2023-05-23T14:45:25.352Z,25.16
2023-05-23T14:48:27.501Z,25.17
2023-05-23T14:51:44.935Z,25.20
2023-05-23T14:54:48.674Z,25.22
2023-05-23T14:57:51.216Z,25.22
2023-05-23T15:00:53.554Z,25.27
2023-05-23T15:03:55.969Z,25.28
2023-05-23T15:06:58.277Z,25.32
2023-05-23T15:10:00.402Z,25.36
2023-05-23T15:13:04.069Z,25.39
2023-05-23T15:16:07.400Z,25.37
2023-05-23T15:19:45.234Z,25.27
2023-05-23T15:22:47.435Z,25.23
2023-05-23T15:25:50.314Z,25.26
2023-05-23T15:28:52.540Z,25.25
2023-05-23T15:31:54.874Z,25.24
2023-05-23T15:34:57.006Z,25.14
2023-05-23T15:37:59.394Z,25.00
2023-05-23T15:41:01.535Z,24.91
2023-05-23T15:44:03.662Z,24.83
2023-05-23T15:47:05.942Z,24.74
2023-05-23T15:50:08.408Z,24.67
2023-05-23T15:53:10.702Z,24.56
2023-05-23T15:56:13.037Z,24.46
2023-05-23T15:59:15.224Z,24.36
2023-05-23T16:02:19.144Z,24.28
2023-05-23T16:05:21.312Z,24.22
2023-05-23T16:08:23.305Z,24.15
2023-05-23T16:11:25.503Z,24.05
2023-05-23T16:14:27.681Z,24.01
2023-05-23T16:17:30.069Z,23.95
2023-05-23T16:20:32.820Z,23.92
2023-05-23T16:23:35.582Z,23.87
2023-05-23T16:26:39.456Z,23.84
2023-05-23T16:29:41.588Z,23.78
2023-05-23T16:32:43.858Z,23.70
2023-05-23T16:35:46.032Z,23.65
2023-05-23T16:38:48.086Z,23.61
2023-05-23T16:41:50.108Z,23.57
2023-05-23T16:44:53.327Z,23.53
2023-05-23T16:47:55.493Z,23.49
2023-05-23T16:50:58.154Z,23.43
2023-05-23T16:54:00.329Z,23.39
2023-05-23T16:57:02.607Z,23.36
2023-05-23T17:00:05.707Z,23.32
2023-05-23T17:03:07.901Z,23.26
2023-05-23T17:06:10.107Z,23.20
2023-05-23T17:09:12.582Z,23.16
2023-05-23T17:12:14.695Z,23.12
2023-05-23T17:15:16.988Z,23.05
2023-05-23T17:18:19.191Z,23.01
2023-05-23T17:21:21.513Z,22.96
2023-05-23T17:24:23.546Z,22.93
2023-05-23T17:27:25.661Z,22.90
2023-05-23T17:30:28.445Z,22.87
2023-05-23T17:33:30.556Z,22.82
2023-05-23T17:36:34.285Z,22.81
2023-05-23T17:39:36.590Z,22.75
2023-05-23T17:42:42.578Z,22.75
2023-05-23T17:45:44.789Z,22.73
2023-05-23T17:48:47.999Z,22.65
2023-05-23T17:51:50.707Z,22.63
2023-05-23T17:54:54.315Z,22.60
2023-05-23T17:57:56.415Z,22.60
2023-05-23T18:00:58.499Z,22.59
2023-05-23T18:04:01.480Z,22.61
2023-05-23T18:07:03.685Z,22.59
2023-05-23T18:10:08.845Z,22.54
2023-05-23T18:13:11.043Z,22.51
2023-05-23T18:16:13.343Z,22.46
2023-05-23T18:19:15.529Z,22.41
2023-05-23T18:22:19.938Z,22.42
2023-05-23T18:25:27.511Z,22.40
2023-05-23T18:28:31.899Z,22.37
2023-05-23T18:31:34.056Z,22.36
2023-05-23T18:34:36.122Z,22.35
2023-05-23T18:37:38.777Z,22.30
2023-05-23T18:40:41.020Z,22.28
2023-05-23T18:43:43.502Z,22.30
2023-05-23T18:46:46.096Z,22.30
2023-05-23T18:49:50.213Z,22.26
2023-05-23T18:52:52.541Z,22.25
2023-05-23T18:55:54.605Z,22.21
2023-05-23T18:58:56.973Z,22.19
2023-05-23T19:02:00.304Z,22.22
2023-05-23T19:05:02.712Z,22.25
2023-05-23T19:08:05.645Z,22.18
2023-05-23T19:11:07.896Z,22.18
2023-05-23T19:14:09.991Z,22.15
2023-05-23T19:17:12.082Z,22.17
2023-05-23T19:20:18.552Z,22.16
2023-05-23T19:23:20.959Z,22.17
2023-05-23T19:26:23.310Z,22.13
2023-05-23T19:29:26.786Z,22.14
2023-05-23T19:32:29.352Z,22.11
2023-05-23T19:35:31.742Z,22.12
2023-05-23T19:38:34.033Z,22.09
2023-05-23T19:41:36.163Z,22.10
2023-05-23T19:44:38.197Z,22.07
2023-05-23T19:47:40.848Z,22.04
2023-05-23T19:50:43.711Z,22.05
2023-05-23T19:53:46.575Z,22.05
2023-05-23T19:56:48.981Z,22.02
2023-05-23T19:59:51.185Z,22.03
2023-05-23T20:02:53.329Z,21.97
2023-05-23T20:05:55.359Z,21.98
2023-05-23T20:08:57.406Z,21.98
2023-05-23T20:12:00.169Z,21.98
2023-05-23T20:15:03.013Z,21.96
2023-05-23T20:18:06.010Z,21.93
2023-05-23T20:21:08.552Z,21.93
2023-05-23T20:24:12.319Z,21.91
2023-05-23T20:27:14.456Z,21.92
2023-05-23T20:30:16.808Z,21.91
2023-05-23T20:33:19.386Z,21.91
2023-05-23T20:36:21.970Z,21.90
2023-05-23T20:39:27.019Z,21.89
2023-05-23T20:42:31.175Z,21.88
2023-05-23T20:45:33.754Z,21.86
2023-05-23T20:48:36.342Z,21.88
2023-05-23T20:51:38.765Z,21.86
2023-05-23T20:54:42.739Z,21.82
2023-05-23T20:57:44.976Z,21.82
2023-05-23T21:00:47.691Z,21.80
2023-05-23T21:03:50.277Z,21.74
2023-05-23T21:06:53.066Z,21.57
2023-05-23T21:09:55.073Z,21.52
2023-05-23T21:12:57.418Z,21.59
2023-05-23T21:15:59.680Z,21.64
2023-05-23T21:19:01.881Z,21.68
2023-05-23T21:22:04.225Z,21.68
2023-05-23T21:25:06.650Z,21.71
2023-05-23T21:28:08.751Z,21.73
2023-05-23T21:31:12.878Z,21.74
2023-05-23T21:34:23.931Z,21.73
2023-05-23T21:37:26.788Z,21.71
2023-05-23T21:40:28.889Z,21.73
2023-05-23T21:43:31.000Z,21.73
2023-05-23T21:46:33.282Z,21.70
2023-05-23T21:49:35.631Z,21.72
2023-05-23T21:52:37.676Z,21.71
2023-05-23T21:55:39.663Z,21.70
2023-05-23T21:58:41.821Z,21.67
2023-05-23T22:01:44.122Z,21.67
2023-05-23T22:04:46.512Z,21.63
2023-05-23T22:07:48.585Z,21.66
2023-05-23T22:10:50.538Z,21.67
2023-05-23T22:13:52.662Z,21.68
2023-05-23T22:16:56.255Z,21.67
2023-05-23T22:19:58.729Z,21.68
2023-05-23T22:23:02.356Z,21.67
2023-05-23T22:26:04.765Z,21.66
2023-05-23T22:29:07.287Z,21.68
2023-05-23T22:32:09.466Z,21.67
2023-05-23T22:35:11.683Z,21.64
2023-05-23T22:38:14.776Z,21.63
2023-05-23T22:41:17.282Z,21.61
2023-05-23T22:44:19.319Z,21.60
2023-05-23T22:47:21.342Z,21.60
2023-05-23T22:50:23.694Z,21.59
2023-05-23T22:53:25.744Z,21.57
2023-05-23T22:56:27.831Z,21.57
2023-05-23T22:59:31.087Z,21.57
2023-05-23T23:02:34.646Z,21.54
2023-05-23T23:05:37.088Z,21.49
2023-05-23T23:08:39.070Z,21.53
2023-05-23T23:11:41.216Z,21.47
2023-05-23T23:14:43.298Z,21.50
2023-05-23T23:17:45.844Z,21.49
2023-05-23T23:20:48.549Z,21.41
2023-05-23T23:23:50.738Z,21.28
2023-05-23T23:26:52.829Z,21.17
2023-05-23T23:29:54.845Z,21.13
2023-05-23T23:32:56.917Z,21.26
2023-05-23T23:35:59.051Z,21.35
2023-05-23T23:39:01.177Z,21.39
2023-05-23T23:42:03.691Z,21.44
2023-05-23T23:45:06.317Z,21.45
2023-05-23T23:48:08.516Z,21.46
2023-05-23T23:51:11.029Z,21.46
2023-05-23T23:54:13.026Z,21.50
2023-05-23T23:57:15.107Z,21.51
